createdAt,value
2023-04-16T00:00:09.281Z,93.12
2023-04-16T00:02:35.927Z,93.81
2023-04-16T00:05:02.542Z,94.15
2023-04-16T00:07:29.135Z,93.74
2023-04-16T00:09:55.691Z,94.21
2023-04-16T00:12:23.362Z,95.06
2023-04-16T00:14:49.861Z,94.68
2023-04-16T00:17:16.397Z,95.12
2023-04-16T00:19:42.946Z,95.63
2023-04-16T00:22:09.473Z,95.10
2023-04-16T00:24:36.010Z,95.01
2023-04-16T00:27:02.523Z,95.43
2023-04-16T00:29:29.054Z,95.34
2023-04-16T00:31:55.602Z,95.96
2023-04-16T00:34:22.152Z,95.15
2023-04-16T00:36:48.668Z,94.88
2023-04-16T00:39:15.255Z,95.70
2023-04-16T00:41:43.134Z,95.66
2023-04-16T00:44:09.721Z,95.14
2023-04-16T00:46:36.799Z,95.53
2023-04-16T00:49:03.405Z,95.35
2023-04-16T00:51:29.963Z,95.21
2023-04-16T00:53:56.493Z,95.20
2023-04-16T00:56:23.071Z,94.87
2023-04-16T00:58:49.597Z,95.10
2023-04-16T01:01:16.223Z,94.22
2023-04-16T01:03:47.112Z,94.72
2023-04-16T01:06:13.835Z,94.32
2023-04-16T01:08:40.370Z,94.83
2023-04-16T01:11:06.949Z,94.81
2023-04-16T01:13:33.635Z,94.61
2023-04-16T01:16:00.966Z,94.01
2023-04-16T01:18:27.538Z,93.71
2023-04-16T01:20:54.094Z,93.67
2023-04-16T01:23:20.598Z,94.34
2023-04-16T01:25:47.225Z,93.49
2023-04-16T01:28:13.778Z,93.36
2023-04-16T01:30:40.307Z,94.22
2023-04-16T01:33:06.864Z,94.31
2023-04-16T01:35:33.423Z,93.60
2023-04-16T01:37:59.983Z,92.92
2023-04-16T01:40:26.524Z,94.04
2023-04-16T01:42:53.086Z,93.45
2023-04-16T01:45:19.611Z,94.34
2023-04-16T01:47:46.193Z,94.01
2023-04-16T01:50:12.753Z,93.38
2023-04-16T01:52:39.260Z,92.79
2023-04-16T01:55:06.292Z,93.29
2023-04-16T01:57:32.834Z,93.09
2023-04-16T01:59:59.389Z,93.55
2023-04-16T02:02:26.000Z,93.61
2023-04-16T02:04:52.643Z,93.37
2023-04-16T02:07:19.180Z,92.63
2023-04-16T02:09:45.769Z,92.99
2023-04-16T02:12:12.246Z,93.22
2023-04-16T02:14:38.802Z,93.00
2023-04-16T02:17:05.330Z,92.91
2023-04-16T02:19:31.884Z,92.56
2023-04-16T02:21:58.443Z,92.82
2023-04-16T02:24:24.967Z,93.40
2023-04-16T02:26:51.521Z,93.22
2023-04-16T02:29:18.107Z,92.50
2023-04-16T02:31:44.743Z,93.24
2023-04-16T02:34:11.404Z,92.63
2023-04-16T02:36:37.972Z,93.07
2023-04-16T02:39:04.656Z,93.55
2023-04-16T02:41:31.220Z,93.43
2023-04-16T02:43:57.753Z,93.82
2023-04-16T02:46:24.516Z,93.39
2023-04-16T02:48:51.115Z,93.54
2023-04-16T02:51:17.689Z,93.80
2023-04-16T02:53:44.218Z,93.07
2023-04-16T02:56:10.788Z,94.10
2023-04-16T02:58:37.375Z,93.77
2023-04-16T03:01:04.067Z,94.52
2023-04-16T03:03:30.657Z,93.95
2023-04-16T03:05:57.172Z,94.49
2023-04-16T03:08:23.701Z,94.47
2023-04-16T03:10:50.253Z,94.33
2023-04-16T03:13:16.829Z,93.92
2023-04-16T03:15:48.595Z,94.63
2023-04-16T03:18:15.200Z,95.01
2023-04-16T03:20:41.776Z,94.28
2023-04-16T03:23:08.337Z,95.19
2023-04-16T03:25:34.914Z,95.19
2023-04-16T03:28:01.453Z,95.20
2023-04-16T03:30:28.037Z,94.53
2023-04-16T03:32:54.620Z,94.71
2023-04-16T03:35:21.160Z,95.06
2023-04-16T03:37:47.734Z,94.61
2023-04-16T03:40:14.445Z,94.49
2023-04-16T03:42:41.043Z,94.33
2023-04-16T03:45:07.922Z,94.63
2023-04-16T03:47:34.492Z,94.40
2023-04-16T03:50:01.045Z,95.21
2023-04-16T03:52:27.589Z,94.65
2023-04-16T03:54:54.126Z,94.36
2023-04-16T03:57:20.642Z,94.31
2023-04-16T03:59:47.169Z,94.61
2023-04-16T04:02:13.908Z,94.50
2023-04-16T04:04:40.593Z,95.03
2023-04-16T04:07:07.262Z,94.03
2023-04-16T04:09:33.814Z,93.78
2023-04-16T04:12:00.424Z,94.08
2023-04-16T04:14:27.014Z,94.38
2023-04-16T04:16:53.561Z,94.06
2023-04-16T04:19:20.057Z,94.31
2023-04-16T04:21:46.636Z,94.77
2023-04-16T04:24:13.184Z,94.92
2023-04-16T04:26:39.719Z,94.33
2023-04-16T04:29:06.237Z,94.77
2023-04-16T04:31:32.846Z,94.56
2023-04-16T04:33:59.364Z,94.63
2023-04-16T04:36:25.898Z,95.63
2023-04-16T04:38:52.484Z,94.80
2023-04-16T04:41:19.069Z,94.63
2023-04-16T04:43:45.658Z,94.55
2023-04-16T04:46:12.322Z,95.14
2023-04-16T04:48:38.851Z,95.33
2023-04-16T04:51:05.601Z,94.72
2023-04-16T04:53:32.143Z,95.39
2023-04-16T04:56:05.510Z,95.58
2023-04-16T04:58:38.585Z,95.34
2023-04-16T05:01:05.247Z,94.80
2023-04-16T05:03:31.915Z,95.59
2023-04-16T05:05:58.540Z,95.49
2023-04-16T05:08:25.125Z,95.15
2023-04-16T05:10:51.644Z,95.30
2023-04-16T05:13:18.205Z,95.04
2023-04-16T05:15:44.760Z,95.13
2023-04-16T05:18:11.409Z,95.60
2023-04-16T05:20:38.016Z,95.75
2023-04-16T05:23:04.593Z,95.15
2023-04-16T05:25:31.157Z,95.31
2023-04-16T05:27:57.670Z,95.20
2023-04-16T05:30:24.262Z,95.92
2023-04-16T05:32:50.818Z,95.87
2023-04-16T05:35:17.790Z,96.05
2023-04-16T05:37:44.491Z,95.39
2023-04-16T05:40:13.119Z,95.30
2023-04-16T05:42:39.705Z,95.20
2023-04-16T05:45:06.852Z,94.80
2023-04-16T05:47:33.402Z,94.59
2023-04-16T05:50:00.010Z,94.71
2023-04-16T05:52:26.577Z,94.56
2023-04-16T05:54:53.138Z,94.69
2023-04-16T05:57:19.632Z,95.35
2023-04-16T05:59:46.194Z,95.13
2023-04-16T06:02:12.767Z,95.33
2023-04-16T06:04:39.345Z,94.85
2023-04-16T06:07:05.942Z,94.26
2023-04-16T06:09:32.487Z,94.30
2023-04-16T06:11:59.339Z,94.89
2023-04-16T06:14:25.846Z,94.66
2023-04-16T06:16:52.390Z,94.83
2023-04-16T06:19:18.943Z,94.34
2023-04-16T06:21:45.509Z,94.11
2023-04-16T06:24:12.022Z,93.82
2023-04-16T06:26:38.631Z,94.59
2023-04-16T06:29:05.180Z,94.34
2023-04-16T06:31:31.779Z,94.12
2023-04-16T06:33:58.361Z,93.38
2023-04-16T06:36:24.905Z,93.65
2023-04-16T06:38:51.429Z,93.21
2023-04-16T06:41:17.934Z,93.53
2023-04-16T06:43:44.514Z,93.02
2023-04-16T06:46:11.005Z,91.85
2023-04-16T06:48:37.567Z,92.36
2023-04-16T06:51:04.300Z,91.77
2023-04-16T06:53:30.871Z,91.50
2023-04-16T06:55:57.434Z,92.39
2023-04-16T06:58:23.986Z,92.30
2023-04-16T07:00:50.542Z,92.68
2023-04-16T07:03:17.245Z,92.34
2023-04-16T07:05:43.847Z,91.72
2023-04-16T07:08:10.567Z,92.31
2023-04-16T07:10:37.170Z,91.76
2023-04-16T07:13:03.739Z,91.38
2023-04-16T07:15:30.296Z,91.58
2023-04-16T07:17:56.882Z,91.10
2023-04-16T07:20:23.460Z,91.09
2023-04-16T07:22:50.067Z,90.30
2023-04-16T07:25:16.597Z,90.71
2023-04-16T07:27:43.220Z,91.04
2023-04-16T07:30:09.926Z,91.08
2023-04-16T07:32:36.520Z,90.05
2023-04-16T07:35:03.102Z,89.79
2023-04-16T07:37:29.800Z,89.28
2023-04-16T07:39:57.363Z,88.34
2023-04-16T07:42:24.018Z,88.12
2023-04-16T07:44:50.507Z,88.12
2023-04-16T07:47:17.050Z,88.04
2023-04-16T07:49:43.611Z,87.33
2023-04-16T07:52:10.144Z,87.50
2023-04-16T07:54:36.702Z,87.27
2023-04-16T07:57:03.347Z,86.92
2023-04-16T07:59:30.141Z,86.61
2023-04-16T08:01:56.964Z,86.65
2023-04-16T08:04:23.683Z,87.05
2023-04-16T08:06:51.122Z,86.85
2023-04-16T08:09:19.417Z,86.58
2023-04-16T08:11:45.991Z,86.57
2023-04-16T08:14:13.377Z,86.36
2023-04-16T08:16:40.038Z,85.19
2023-04-16T08:19:06.569Z,85.47
2023-04-16T08:21:33.597Z,84.65
2023-04-16T08:24:00.156Z,84.49
2023-04-16T08:26:26.728Z,84.66
2023-04-16T08:28:53.274Z,84.01
2023-04-16T08:31:19.943Z,83.58
2023-04-16T08:33:46.505Z,83.56
2023-04-16T08:36:13.389Z,83.00
2023-04-16T08:38:39.902Z,83.34
2023-04-16T08:41:06.890Z,82.67
2023-04-16T08:43:34.079Z,82.05
2023-04-16T08:46:00.825Z,81.15
2023-04-16T08:48:29.332Z,80.64
2023-04-16T08:50:55.876Z,80.65
2023-04-16T08:53:23.175Z,79.36
2023-04-16T08:55:50.393Z,79.77
2023-04-16T08:58:21.047Z,79.99
2023-04-16T09:00:48.328Z,79.59
2023-04-16T09:03:14.938Z,79.31
2023-04-16T09:05:42.175Z,78.96
2023-04-16T09:08:08.909Z,78.83
2023-04-16T09:10:35.411Z,78.64
2023-04-16T09:13:01.973Z,77.68
2023-04-16T09:15:28.509Z,77.77
2023-04-16T09:17:55.073Z,77.35
2023-04-16T09:20:21.652Z,77.75
2023-04-16T09:22:48.349Z,77.11
2023-04-16T09:25:15.028Z,77.17
2023-04-16T09:27:41.695Z,77.31
2023-04-16T09:30:21.392Z,77.38
2023-04-16T09:32:48.049Z,77.31
2023-04-16T09:35:14.712Z,77.42
2023-04-16T09:37:41.257Z,77.64
2023-04-16T09:40:08.331Z,77.50
2023-04-16T09:42:36.099Z,77.96
2023-04-16T09:45:04.920Z,77.72
2023-04-16T09:47:42.748Z,77.85
2023-04-16T09:50:12.472Z,77.63
2023-04-16T09:52:39.539Z,78.10
2023-04-16T09:55:06.461Z,78.36
2023-04-16T09:57:32.981Z,78.71
2023-04-16T10:00:04.406Z,78.70
2023-04-16T10:02:31.068Z,78.71
2023-04-16T10:04:57.962Z,78.60
2023-04-16T10:07:28.174Z,78.77
2023-04-16T10:09:54.741Z,77.97
2023-04-16T10:12:21.522Z,77.41
2023-04-16T10:14:50.119Z,78.25
2023-04-16T10:17:17.100Z,78.58
2023-04-16T10:19:43.703Z,78.55
2023-04-16T10:22:10.988Z,77.63
2023-04-16T10:24:37.748Z,77.71
2023-04-16T10:27:04.296Z,77.97
2023-04-16T10:29:31.137Z,78.13
2023-04-16T10:31:57.850Z,77.91
2023-04-16T10:34:24.703Z,77.61
2023-04-16T10:36:52.094Z,77.55
2023-04-16T10:39:23.172Z,77.14
2023-04-16T10:41:51.231Z,76.87
2023-04-16T10:44:19.033Z,76.83
2023-04-16T10:46:48.793Z,77.34
2023-04-16T10:49:24.017Z,77.80
2023-04-16T10:51:59.782Z,78.04
2023-04-16T10:54:32.136Z,78.59
2023-04-16T10:57:06.871Z,79.25
2023-04-16T10:59:34.854Z,79.38
2023-04-16T11:02:02.629Z,79.01
2023-04-16T11:04:39.195Z,79.15
2023-04-16T11:07:11.887Z,78.77
2023-04-16T11:09:44.404Z,78.74
2023-04-16T11:12:12.380Z,78.87
2023-04-16T11:14:40.374Z,79.15
2023-04-16T11:17:06.925Z,78.74
2023-04-16T11:19:35.550Z,78.93
2023-04-16T11:22:02.693Z,77.92
2023-04-16T11:24:32.562Z,78.12
2023-04-16T11:26:59.166Z,78.16
2023-04-16T11:29:25.721Z,78.22
2023-04-16T11:31:52.882Z,78.75
2023-04-16T11:34:19.515Z,78.73
2023-04-16T11:36:46.700Z,78.45
2023-04-16T11:39:13.255Z,78.75
2023-04-16T11:41:46.649Z,78.60
2023-04-16T11:44:31.380Z,78.68
2023-04-16T11:46:57.938Z,78.78
2023-04-16T11:49:30.498Z,79.00
2023-04-16T11:51:57.085Z,78.81
2023-04-16T11:54:24.066Z,78.20
2023-04-16T11:56:52.140Z,78.71
2023-04-16T11:59:20.194Z,79.08
2023-04-16T12:01:48.123Z,78.71
2023-04-16T12:04:19.848Z,79.14
2023-04-16T12:07:14.403Z,78.26
2023-04-16T12:09:43.830Z,78.70
2023-04-16T12:12:29.812Z,78.82
2023-04-16T12:14:56.628Z,78.45
2023-04-16T12:17:23.485Z,79.02
2023-04-16T12:19:56.399Z,78.35
2023-04-16T12:22:30.280Z,78.57
2023-04-16T12:24:58.887Z,78.80
2023-04-16T12:27:25.403Z,79.31
2023-04-16T12:30:07.511Z,78.85
2023-04-16T12:32:34.024Z,78.64
2023-04-16T12:35:00.664Z,78.88
2023-04-16T12:37:27.204Z,78.94
2023-04-16T12:39:54.326Z,79.10
2023-04-16T12:42:21.288Z,79.10
2023-04-16T12:44:47.867Z,79.13
2023-04-16T12:47:14.472Z,79.73
2023-04-16T12:49:41.022Z,79.71
2023-04-16T12:52:07.610Z,79.54
2023-04-16T12:54:34.132Z,78.92
2023-04-16T12:57:01.475Z,78.65
2023-04-16T12:59:27.999Z,79.55
2023-04-16T13:01:54.579Z,78.80
2023-04-16T13:04:22.754Z,78.62
2023-04-16T13:06:51.669Z,79.34
2023-04-16T13:09:18.166Z,79.11
2023-04-16T13:11:44.721Z,79.17
2023-04-16T13:14:11.271Z,79.38
2023-04-16T13:16:37.888Z,79.51
2023-04-16T13:19:05.067Z,79.57
2023-04-16T13:21:31.620Z,79.51
2023-04-16T13:23:58.490Z,79.66
2023-04-16T13:26:25.050Z,79.50
2023-04-16T13:28:51.594Z,79.84
2023-04-16T13:31:18.249Z,79.48
2023-04-16T13:33:44.830Z,79.61
2023-04-16T13:36:11.364Z,79.52
2023-04-16T13:38:37.911Z,79.10
2023-04-16T13:41:04.472Z,78.81
2023-04-16T13:43:31.028Z,79.22
2023-04-16T13:45:57.549Z,79.61
2023-04-16T13:48:24.130Z,79.48
2023-04-16T13:50:50.729Z,79.22
2023-04-16T13:53:17.346Z,79.26
2023-04-16T13:55:44.241Z,79.40
2023-04-16T13:58:10.780Z,79.22
2023-04-16T14:00:37.835Z,78.94
2023-04-16T14:03:04.539Z,78.70
2023-04-16T14:05:31.138Z,78.44
2023-04-16T14:07:57.738Z,78.81
2023-04-16T14:10:24.377Z,79.36
2023-04-16T14:12:50.915Z,79.42
2023-04-16T14:15:17.458Z,79.85
2023-04-16T14:17:44.118Z,79.63
2023-04-16T14:20:12.118Z,79.78
2023-04-16T14:22:38.784Z,79.58
2023-04-16T14:25:06.073Z,79.67
2023-04-16T14:27:33.115Z,79.49
2023-04-16T14:29:59.919Z,79.64
2023-04-16T14:32:26.870Z,79.65
2023-04-16T14:34:53.409Z,79.64
2023-04-16T14:37:19.975Z,79.35
2023-04-16T14:39:46.521Z,79.49
2023-04-16T14:42:13.060Z,79.42
2023-04-16T14:44:39.675Z,79.70
2023-04-16T14:47:06.286Z,80.16
2023-04-16T14:49:33.310Z,80.13
2023-04-16T14:52:00.899Z,80.63
2023-04-16T14:54:27.512Z,79.88
2023-04-16T14:56:54.146Z,80.34
2023-04-16T14:59:20.703Z,80.76
2023-04-16T15:01:47.400Z,80.90
2023-04-16T15:04:14.106Z,80.91
2023-04-16T15:06:41.995Z,80.31
2023-04-16T15:09:08.856Z,80.09
2023-04-16T15:11:35.580Z,79.82
2023-04-16T15:14:02.127Z,79.90
2023-04-16T15:16:28.697Z,80.25
2023-04-16T15:18:55.283Z,79.98
2023-04-16T15:21:21.793Z,79.81
2023-04-16T15:23:48.322Z,80.64
2023-04-16T15:26:14.911Z,80.68
2023-04-16T15:28:41.470Z,80.95
2023-04-16T15:31:08.142Z,80.74
2023-04-16T15:33:34.771Z,80.77
2023-04-16T15:36:01.259Z,80.42
2023-04-16T15:38:31.597Z,80.88
2023-04-16T15:40:58.369Z,81.07
2023-04-16T15:43:27.007Z,81.30
2023-04-16T15:45:53.739Z,81.42
2023-04-16T15:48:20.384Z,81.12
2023-04-16T15:50:47.000Z,80.75
2023-04-16T15:53:13.659Z,81.12
2023-04-16T15:55:40.204Z,81.12
2023-04-16T15:58:06.751Z,81.09
2023-04-16T16:00:33.304Z,80.57
2023-04-16T16:03:00.014Z,80.81
2023-04-16T16:05:27.660Z,80.79
2023-04-16T16:07:54.205Z,80.39
2023-04-16T16:10:21.609Z,81.00
2023-04-16T16:12:48.136Z,80.52
2023-04-16T16:15:14.680Z,80.79
2023-04-16T16:17:41.326Z,80.78
2023-04-16T16:20:08.011Z,81.18
2023-04-16T16:22:34.586Z,80.96
2023-04-16T16:25:01.096Z,80.30
2023-04-16T16:27:27.719Z,81.30
2023-04-16T16:29:54.279Z,80.83
2023-04-16T16:32:20.801Z,80.91
2023-04-16T16:34:47.348Z,81.14
2023-04-16T16:37:13.911Z,81.65
2023-04-16T16:39:40.480Z,81.65
2023-04-16T16:42:07.007Z,81.82
2023-04-16T16:44:33.564Z,81.51
2023-04-16T16:47:00.156Z,82.00
2023-04-16T16:49:26.741Z,82.63
2023-04-16T16:51:53.256Z,82.32
2023-04-16T16:54:19.822Z,81.97
2023-04-16T16:56:46.330Z,82.20
2023-04-16T16:59:13.088Z,82.50
2023-04-16T17:01:41.576Z,82.18
2023-04-16T17:04:08.225Z,82.64
2023-04-16T17:06:34.928Z,81.98
2023-04-16T17:09:01.610Z,82.58
2023-04-16T17:11:28.166Z,82.20
2023-04-16T17:13:54.729Z,82.58
2023-04-16T17:16:21.276Z,82.54
2023-04-16T17:18:47.880Z,83.17
2023-04-16T17:21:16.404Z,82.86
2023-04-16T17:23:43.291Z,82.85
2023-04-16T17:26:09.895Z,83.36
2023-04-16T17:28:36.466Z,83.61
2023-04-16T17:31:02.995Z,84.46
2023-04-16T17:33:29.513Z,84.37
2023-04-16T17:35:56.029Z,84.73
2023-04-16T17:38:22.559Z,84.52
2023-04-16T17:40:49.588Z,84.85
2023-04-16T17:43:16.105Z,84.67
2023-04-16T17:45:42.689Z,84.64
2023-04-16T17:48:09.383Z,84.60
2023-04-16T17:50:38.181Z,85.17
2023-04-16T17:53:05.993Z,85.26
2023-04-16T17:55:32.589Z,85.65
2023-04-16T17:57:59.143Z,85.88
2023-04-16T18:00:25.785Z,85.98
2023-04-16T18:02:52.460Z,85.41
2023-04-16T18:05:19.093Z,86.51
2023-04-16T18:07:45.634Z,85.66
2023-04-16T18:10:12.195Z,86.32
2023-04-16T18:12:38.816Z,86.31
2023-04-16T18:15:06.422Z,86.26
2023-04-16T18:17:33.109Z,86.16
2023-04-16T18:19:59.735Z,86.40
2023-04-16T18:22:27.597Z,86.25
2023-04-16T18:24:54.312Z,86.98
2023-04-16T18:27:20.985Z,87.20
2023-04-16T18:29:49.295Z,87.79
2023-04-16T18:32:16.388Z,87.64
2023-04-16T18:34:43.204Z,87.84
2023-04-16T18:37:10.666Z,88.08
2023-04-16T18:39:37.237Z,88.25
2023-04-16T18:42:04.636Z,88.04
2023-04-16T18:44:31.180Z,87.90
2023-04-16T18:46:57.799Z,87.84
2023-04-16T18:49:24.885Z,88.39
2023-04-16T18:51:51.456Z,88.66
2023-04-16T18:54:18.039Z,88.54
2023-04-16T18:56:44.607Z,88.86
2023-04-16T18:59:11.601Z,88.58
2023-04-16T19:01:38.538Z,89.52
2023-04-16T19:04:05.291Z,88.97
2023-04-16T19:06:31.901Z,88.93
2023-04-16T19:08:58.473Z,89.85
2023-04-16T19:11:25.049Z,89.13
2023-04-16T19:13:51.854Z,89.31
2023-04-16T19:16:18.438Z,90.22
2023-04-16T19:18:45.024Z,90.01
2023-04-16T19:21:11.682Z,90.63
2023-04-16T19:23:38.335Z,90.73
2023-04-16T19:26:05.091Z,90.78
2023-04-16T19:28:31.683Z,90.30
2023-04-16T19:30:58.698Z,90.95
2023-04-16T19:33:25.288Z,90.60
2023-04-16T19:35:51.861Z,90.55
2023-04-16T19:38:18.411Z,90.72
2023-04-16T19:40:45.473Z,91.10
2023-04-16T19:43:12.332Z,90.74
2023-04-16T19:45:45.716Z,91.13
2023-04-16T19:48:12.578Z,91.43
2023-04-16T19:50:41.872Z,91.03
2023-04-16T19:53:08.682Z,91.13
2023-04-16T19:55:35.197Z,90.83
2023-04-16T19:58:01.840Z,91.14
2023-04-16T20:00:28.391Z,92.03
2023-04-16T20:02:55.065Z,91.84
2023-04-16T20:05:21.690Z,91.93
2023-04-16T20:07:48.671Z,91.55
2023-04-16T20:10:16.774Z,91.66
2023-04-16T20:12:43.359Z,91.48
2023-04-16T20:15:10.127Z,92.32
2023-04-16T20:17:36.853Z,92.70
2023-04-16T20:20:03.567Z,91.75
2023-04-16T20:22:30.120Z,92.12
2023-04-16T20:24:56.681Z,92.41
2023-04-16T20:27:23.301Z,92.44
2023-04-16T20:29:49.882Z,92.37
2023-04-16T20:32:16.398Z,92.49
2023-04-16T20:34:43.009Z,93.36
2023-04-16T20:37:09.618Z,92.79
2023-04-16T20:39:36.196Z,93.14
2023-04-16T20:42:02.746Z,93.05
2023-04-16T20:44:29.317Z,93.59
2023-04-16T20:46:56.056Z,93.94
2023-04-16T20:49:22.786Z,93.48
2023-04-16T20:51:49.320Z,93.77
2023-04-16T20:54:15.825Z,93.40
2023-04-16T20:56:42.372Z,94.05
2023-04-16T20:59:09.458Z,93.81
2023-04-16T21:01:36.304Z,93.94
2023-04-16T21:04:03.095Z,94.38
2023-04-16T21:06:29.790Z,93.48
2023-04-16T21:08:56.334Z,94.73
2023-04-16T21:11:22.869Z,93.89
2023-04-16T21:13:49.447Z,93.65
2023-04-16T21:16:16.076Z,94.76
2023-04-16T21:18:42.698Z,94.94
2023-04-16T21:21:09.211Z,94.60
2023-04-16T21:23:35.801Z,94.89
2023-04-16T21:26:02.352Z,94.81
2023-04-16T21:28:28.994Z,94.53
2023-04-16T21:30:55.509Z,95.32
2023-04-16T21:33:22.086Z,95.55
2023-04-16T21:35:52.149Z,95.76
2023-04-16T21:38:19.535Z,95.08
2023-04-16T21:40:46.740Z,95.70
2023-04-16T21:43:13.274Z,95.03
2023-04-16T21:45:39.835Z,95.81
2023-04-16T21:48:06.802Z,95.56
2023-04-16T21:50:33.438Z,96.14
2023-04-16T21:53:00.003Z,95.73
2023-04-16T21:55:26.507Z,95.96
2023-04-16T21:57:53.049Z,95.77
2023-04-16T22:00:19.688Z,95.43
2023-04-16T22:02:46.409Z,96.07
2023-04-16T22:05:13.155Z,95.99
2023-04-16T22:07:39.692Z,96.06
2023-04-16T22:10:06.844Z,96.30
2023-04-16T22:12:33.384Z,96.45
2023-04-16T22:15:02.718Z,95.83
2023-04-16T22:17:29.847Z,96.40
2023-04-16T22:19:56.466Z,96.44
2023-04-16T22:22:23.043Z,96.89
2023-04-16T22:24:49.606Z,96.92
2023-04-16T22:27:16.167Z,96.41
2023-04-16T22:29:42.709Z,97.28
2023-04-16T22:32:09.293Z,97.01
2023-04-16T22:34:35.852Z,96.54
2023-04-16T22:37:02.419Z,96.17
2023-04-16T22:39:29.940Z,96.11
2023-04-16T22:41:56.490Z,97.08
2023-04-16T22:44:23.004Z,97.07
2023-04-16T22:46:49.586Z,96.84
2023-04-16T22:49:16.117Z,97.17
2023-04-16T22:51:42.670Z,97.29
2023-04-16T22:54:09.277Z,96.67
2023-04-16T22:56:35.836Z,96.73
2023-04-16T22:59:02.401Z,97.62
2023-04-16T23:01:29.103Z,96.81
2023-04-16T23:03:55.719Z,96.78
2023-04-16T23:06:22.231Z,97.38
2023-04-16T23:08:48.798Z,97.20
2023-04-16T23:11:15.329Z,97.83
2023-04-16T23:13:41.890Z,97.17
2023-04-16T23:16:08.657Z,97.67
2023-04-16T23:18:35.212Z,97.24
2023-04-16T23:21:01.774Z,97.23
2023-04-16T23:23:28.331Z,97.04
2023-04-16T23:25:54.945Z,97.49
2023-04-16T23:28:21.492Z,97.59
2023-04-16T23:30:51.480Z,98.21
2023-04-16T23:33:18.035Z,97.59
2023-04-16T23:35:44.549Z,98.09
2023-04-16T23:38:11.151Z,97.36
2023-04-16T23:40:37.649Z,98.32
2023-04-16T23:43:04.212Z,97.64
2023-04-16T23:45:30.778Z,97.99
2023-04-16T23:47:57.414Z,98.28
2023-04-16T23:50:24.008Z,98.47
2023-04-16T23:52:50.574Z,98.62
2023-04-16T23:55:17.121Z,97.96
2023-04-16T23:57:43.670Z,97.76
